sensor_id;sensor_type;location;lat;lon;timestamp;temperature;humidity
52963;DHT22;38827;53.024;6.596;2022-12-07T00:03:31;3.60;88.30
52963;DHT22;38827;53.024;6.596;2022-12-07T00:05:58;3.70;88.40
52963;DHT22;38827;53.024;6.596;2022-12-07T00:08:24;3.80;88.60
52963;DHT22;38827;53.024;6.596;2022-12-07T00:10:49;3.90;88.40
52963;DHT22;38827;53.024;6.596;2022-12-07T00:13:15;3.90;88.00
52963;DHT22;38827;53.024;6.596;2022-12-07T00:15:41;3.90;87.90
52963;DHT22;38827;53.024;6.596;2022-12-07T00:18:06;3.90;87.60
52963;DHT22;38827;53.024;6.596;2022-12-07T00:20:32;3.90;87.70
52963;DHT22;38827;53.024;6.596;2022-12-07T00:22:59;3.90;87.70
52963;DHT22;38827;53.024;6.596;2022-12-07T00:25:25;3.90;87.80
52963;DHT22;38827;53.024;6.596;2022-12-07T00:27:58;3.90;87.80
52963;DHT22;38827;53.024;6.596;2022-12-07T00:30:24;3.90;87.80
52963;DHT22;38827;53.024;6.596;2022-12-07T00:32:50;3.90;87.80
52963;DHT22;38827;53.024;6.596;2022-12-07T00:35:18;3.90;87.70
52963;DHT22;38827;53.024;6.596;2022-12-07T00:37:44;3.90;87.80
52963;DHT22;38827;53.024;6.596;2022-12-07T00:40:10;3.90;87.80
52963;DHT22;38827;53.024;6.596;2022-12-07T00:42:42;4.00;87.70
52963;DHT22;38827;53.024;6.596;2022-12-07T00:45:08;4.00;87.60
52963;DHT22;38827;53.024;6.596;2022-12-07T00:47:33;3.90;87.50
52963;DHT22;38827;53.024;6.596;2022-12-07T00:50:02;3.90;87.50
52963;DHT22;38827;53.024;6.596;2022-12-07T00:52:28;3.90;87.50
52963;DHT22;38827;53.024;6.596;2022-12-07T00:54:56;3.80;87.40
52963;DHT22;38827;53.024;6.596;2022-12-07T00:57:22;3.80;87.40
52963;DHT22;38827;53.024;6.596;2022-12-07T00:59:48;3.80;87.40
52963;DHT22;38827;53.024;6.596;2022-12-07T01:02:13;3.70;87.50
52963;DHT22;38827;53.024;6.596;2022-12-07T01:04:39;3.70;87.60
52963;DHT22;38827;53.024;6.596;2022-12-07T01:07:05;3.70;87.60
52963;DHT22;38827;53.024;6.596;2022-12-07T01:09:30;3.80;87.60
52963;DHT22;38827;53.024;6.596;2022-12-07T01:11:56;3.70;87.50
52963;DHT22;38827;53.024;6.596;2022-12-07T01:14:22;3.70;87.50
52963;DHT22;38827;53.024;6.596;2022-12-07T01:16:47;3.70;87.50
52963;DHT22;38827;53.024;6.596;2022-12-07T01:19:13;3.70;87.50
52963;DHT22;38827;53.024;6.596;2022-12-07T01:21:39;3.70;87.50
52963;DHT22;38827;53.024;6.596;2022-12-07T01:24:06;3.70;87.60
52963;DHT22;38827;53.024;6.596;2022-12-07T01:26:32;3.70;87.50
52963;DHT22;38827;53.024;6.596;2022-12-07T01:28:58;3.70;87.50
52963;DHT22;38827;53.024;6.596;2022-12-07T01:31:27;3.80;87.50
52963;DHT22;38827;53.024;6.596;2022-12-07T01:33:58;3.80;87.60
52963;DHT22;38827;53.024;6.596;2022-12-07T01:36:27;3.90;87.50
52963;DHT22;38827;53.024;6.596;2022-12-07T01:38:59;4.00;87.30
52963;DHT22;38827;53.024;6.596;2022-12-07T01:41:29;4.00;87.10
52963;DHT22;38827;53.024;6.596;2022-12-07T01:44:23;4.00;87.00
52963;DHT22;38827;53.024;6.596;2022-12-07T01:47:05;4.00;86.90
52963;DHT22;38827;53.024;6.596;2022-12-07T01:49:37;3.90;87.10
52963;DHT22;38827;53.024;6.596;2022-12-07T01:52:31;4.00;87.10
52963;DHT22;38827;53.024;6.596;2022-12-07T01:55:05;4.00;87.00
52963;DHT22;38827;53.024;6.596;2022-12-07T01:57:33;4.00;87.10
52963;DHT22;38827;53.024;6.596;2022-12-07T02:00:00;4.00;87.10
52963;DHT22;38827;53.024;6.596;2022-12-07T02:02:32;4.10;87.10
52963;DHT22;38827;53.024;6.596;2022-12-07T02:05:00;4.10;87.00
52963;DHT22;38827;53.024;6.596;2022-12-07T02:07:31;4.10;87.00
52963;DHT22;38827;53.024;6.596;2022-12-07T02:10:11;4.10;87.00
52963;DHT22;38827;53.024;6.596;2022-12-07T02:12:36;4.00;87.20
52963;DHT22;38827;53.024;6.596;2022-12-07T02:15:02;4.10;87.20
52963;DHT22;38827;53.024;6.596;2022-12-07T02:17:34;4.00;87.20
52963;DHT22;38827;53.024;6.596;2022-12-07T02:25:22;3.90;87.40
52963;DHT22;38827;53.024;6.596;2022-12-07T02:28:06;3.90;87.60
52963;DHT22;38827;53.024;6.596;2022-12-07T02:30:35;3.90;87.70
52963;DHT22;38827;53.024;6.596;2022-12-07T02:33:21;3.80;87.80
52963;DHT22;38827;53.024;6.596;2022-12-07T02:38:40;3.90;88.10
52963;DHT22;38827;53.024;6.596;2022-12-07T02:41:22;3.90;88.10
52963;DHT22;38827;53.024;6.596;2022-12-07T02:43:56;3.90;88.10
52963;DHT22;38827;53.024;6.596;2022-12-07T02:46:30;3.90;88.10
52963;DHT22;38827;53.024;6.596;2022-12-07T02:49:00;3.90;88.20
52963;DHT22;38827;53.024;6.596;2022-12-07T03:11:53;4.20;87.70
52963;DHT22;38827;53.024;6.596;2022-12-07T03:18:28;4.10;87.50
52963;DHT22;38827;53.024;6.596;2022-12-07T03:21:15;4.10;87.50
52963;DHT22;38827;53.024;6.596;2022-12-07T03:26:53;3.90;87.80
52963;DHT22;38827;53.024;6.596;2022-12-07T03:29:45;3.90;87.80
52963;DHT22;38827;53.024;6.596;2022-12-07T03:32:44;3.90;87.80
52963;DHT22;38827;53.024;6.596;2022-12-07T03:43:21;4.00;88.10
52963;DHT22;38827;53.024;6.596;2022-12-07T03:46:20;3.90;88.00
52963;DHT22;38827;53.024;6.596;2022-12-07T03:52:40;4.00;88.20
52963;DHT22;38827;53.024;6.596;2022-12-07T03:55:15;4.00;88.20
52963;DHT22;38827;53.024;6.596;2022-12-07T03:57:43;4.00;88.10
52963;DHT22;38827;53.024;6.596;2022-12-07T04:00:10;4.00;88.00
52963;DHT22;38827;53.024;6.596;2022-12-07T04:02:46;4.00;87.80
52963;DHT22;38827;53.024;6.596;2022-12-07T04:05:32;4.00;88.00
52963;DHT22;38827;53.024;6.596;2022-12-07T04:07:58;4.00;88.10
52963;DHT22;38827;53.024;6.596;2022-12-07T04:10:24;3.90;88.10
52963;DHT22;38827;53.024;6.596;2022-12-07T04:12:49;3.90;87.90
52963;DHT22;38827;53.024;6.596;2022-12-07T04:15:15;3.90;88.10
52963;DHT22;38827;53.024;6.596;2022-12-07T04:17:41;3.90;88.10
52963;DHT22;38827;53.024;6.596;2022-12-07T04:20:07;3.90;88.20
52963;DHT22;38827;53.024;6.596;2022-12-07T04:22:33;3.90;88.20
52963;DHT22;38827;53.024;6.596;2022-12-07T04:24:58;3.80;88.10
52963;DHT22;38827;53.024;6.596;2022-12-07T04:27:24;3.80;88.30
52963;DHT22;38827;53.024;6.596;2022-12-07T04:29:50;3.70;88.30
52963;DHT22;38827;53.024;6.596;2022-12-07T04:32:15;3.70;88.50
52963;DHT22;38827;53.024;6.596;2022-12-07T04:34:41;3.80;88.60
52963;DHT22;38827;53.024;6.596;2022-12-07T04:37:07;3.80;88.60
52963;DHT22;38827;53.024;6.596;2022-12-07T04:39:34;3.80;88.60
52963;DHT22;38827;53.024;6.596;2022-12-07T04:42:00;3.80;88.60
52963;DHT22;38827;53.024;6.596;2022-12-07T04:44:27;3.80;88.60
52963;DHT22;38827;53.024;6.596;2022-12-07T04:46:54;3.80;88.50
52963;DHT22;38827;53.024;6.596;2022-12-07T04:49:20;3.90;88.50
52963;DHT22;38827;53.024;6.596;2022-12-07T04:51:47;3.90;88.50
52963;DHT22;38827;53.024;6.596;2022-12-07T04:54:14;3.90;88.20
52963;DHT22;38827;53.024;6.596;2022-12-07T04:56:42;4.00;88.20
52963;DHT22;38827;53.024;6.596;2022-12-07T04:59:08;4.00;88.40
52963;DHT22;38827;53.024;6.596;2022-12-07T05:02:09;4.00;88.50
52963;DHT22;38827;53.024;6.596;2022-12-07T05:04:35;4.10;88.00
52963;DHT22;38827;53.024;6.596;2022-12-07T05:07:00;4.20;88.10
52963;DHT22;38827;53.024;6.596;2022-12-07T05:09:45;4.20;87.90
52963;DHT22;38827;53.024;6.596;2022-12-07T05:12:17;4.20;87.70
52963;DHT22;38827;53.024;6.596;2022-12-07T05:14:43;4.20;87.70
52963;DHT22;38827;53.024;6.596;2022-12-07T05:17:17;4.20;87.60
52963;DHT22;38827;53.024;6.596;2022-12-07T05:19:51;4.20;87.50
52963;DHT22;38827;53.024;6.596;2022-12-07T05:22:17;4.10;87.50
52963;DHT22;38827;53.024;6.596;2022-12-07T05:24:55;4.10;87.60
52963;DHT22;38827;53.024;6.596;2022-12-07T05:27:21;4.10;87.50
52963;DHT22;38827;53.024;6.596;2022-12-07T05:29:47;4.10;87.60
52963;DHT22;38827;53.024;6.596;2022-12-07T05:32:12;4.00;87.70
52963;DHT22;38827;53.024;6.596;2022-12-07T05:35:15;4.00;87.80
52963;DHT22;38827;53.024;6.596;2022-12-07T05:41:12;3.90;87.70
52963;DHT22;38827;53.024;6.596;2022-12-07T05:44:18;3.80;87.80
52963;DHT22;38827;53.024;6.596;2022-12-07T05:46:47;3.70;88.00
52963;DHT22;38827;53.024;6.596;2022-12-07T05:49:29;3.60;88.00
52963;DHT22;38827;53.024;6.596;2022-12-07T05:52:07;3.60;88.20
52963;DHT22;38827;53.024;6.596;2022-12-07T05:54:42;3.50;88.30
52963;DHT22;38827;53.024;6.596;2022-12-07T05:57:27;3.50;88.40
52963;DHT22;38827;53.024;6.596;2022-12-07T05:59:52;3.50;88.60
52963;DHT22;38827;53.024;6.596;2022-12-07T06:02:18;3.40;88.60
52963;DHT22;38827;53.024;6.596;2022-12-07T06:04:47;3.40;88.60
52963;DHT22;38827;53.024;6.596;2022-12-07T06:07:18;3.40;88.80
52963;DHT22;38827;53.024;6.596;2022-12-07T06:09:44;3.30;88.70
52963;DHT22;38827;53.024;6.596;2022-12-07T06:12:11;3.30;88.90
52963;DHT22;38827;53.024;6.596;2022-12-07T06:14:57;3.30;88.90
52963;DHT22;38827;53.024;6.596;2022-12-07T06:17:36;3.30;88.90
52963;DHT22;38827;53.024;6.596;2022-12-07T06:20:03;3.30;88.80
52963;DHT22;38827;53.024;6.596;2022-12-07T06:22:29;3.20;88.90
52963;DHT22;38827;53.024;6.596;2022-12-07T06:24:54;3.20;88.90
52963;DHT22;38827;53.024;6.596;2022-12-07T06:27:20;3.20;88.90
52963;DHT22;38827;53.024;6.596;2022-12-07T06:29:46;3.20;88.90
52963;DHT22;38827;53.024;6.596;2022-12-07T06:32:11;3.20;88.90
52963;DHT22;38827;53.024;6.596;2022-12-07T06:34:37;3.20;88.80
52963;DHT22;38827;53.024;6.596;2022-12-07T06:37:04;3.20;88.90
52963;DHT22;38827;53.024;6.596;2022-12-07T06:39:30;3.10;88.80
52963;DHT22;38827;53.024;6.596;2022-12-07T06:41:59;3.10;89.10
52963;DHT22;38827;53.024;6.596;2022-12-07T06:44:25;3.20;89.30
52963;DHT22;38827;53.024;6.596;2022-12-07T06:46:52;3.20;89.20
52963;DHT22;38827;53.024;6.596;2022-12-07T06:52:27;3.30;89.00
52963;DHT22;38827;53.024;6.596;2022-12-07T06:54:52;3.40;88.90
52963;DHT22;38827;53.024;6.596;2022-12-07T06:57:33;3.50;88.80
52963;DHT22;38827;53.024;6.596;2022-12-07T07:00:49;3.50;88.60
52963;DHT22;38827;53.024;6.596;2022-12-07T07:03:16;3.50;88.40
52963;DHT22;38827;53.024;6.596;2022-12-07T07:05:45;3.50;88.40
52963;DHT22;38827;53.024;6.596;2022-12-07T07:08:11;3.60;88.20
52963;DHT22;38827;53.024;6.596;2022-12-07T07:10:40;3.60;88.10
52963;DHT22;38827;53.024;6.596;2022-12-07T07:13:46;3.50;88.10
52963;DHT22;38827;53.024;6.596;2022-12-07T07:23:45;3.30;88.20
52963;DHT22;38827;53.024;6.596;2022-12-07T07:29:51;3.30;88.60
52963;DHT22;38827;53.024;6.596;2022-12-07T07:32:25;3.30;88.70
52963;DHT22;38827;53.024;6.596;2022-12-07T07:38:12;3.40;88.80
52963;DHT22;38827;53.024;6.596;2022-12-07T07:40:39;3.50;88.60
52963;DHT22;38827;53.024;6.596;2022-12-07T07:43:04;3.50;88.60
52963;DHT22;38827;53.024;6.596;2022-12-07T07:45:45;3.60;88.30
52963;DHT22;38827;53.024;6.596;2022-12-07T07:48:20;3.60;88.10
52963;DHT22;38827;53.024;6.596;2022-12-07T07:51:07;3.50;87.90
52963;DHT22;38827;53.024;6.596;2022-12-07T07:53:33;3.50;87.90
52963;DHT22;38827;53.024;6.596;2022-12-07T07:56:01;3.50;88.00
52963;DHT22;38827;53.024;6.596;2022-12-07T07:58:36;3.50;88.10
52963;DHT22;38827;53.024;6.596;2022-12-07T08:01:05;3.50;88.20
52963;DHT22;38827;53.024;6.596;2022-12-07T08:03:31;3.50;88.30
52963;DHT22;38827;53.024;6.596;2022-12-07T08:05:57;3.40;88.30
52963;DHT22;38827;53.024;6.596;2022-12-07T08:08:23;3.50;88.40
52963;DHT22;38827;53.024;6.596;2022-12-07T08:10:48;3.50;88.50
52963;DHT22;38827;53.024;6.596;2022-12-07T08:13:17;3.50;88.60
52963;DHT22;38827;53.024;6.596;2022-12-07T08:15:45;3.60;89.00
52963;DHT22;38827;53.024;6.596;2022-12-07T08:18:11;4.00;89.60
52963;DHT22;38827;53.024;6.596;2022-12-07T08:20:37;4.50;89.60
52963;DHT22;38827;53.024;6.596;2022-12-07T08:23:04;5.20;89.00
52963;DHT22;38827;53.024;6.596;2022-12-07T08:25:31;5.70;87.60
52963;DHT22;38827;53.024;6.596;2022-12-07T08:27:57;6.20;85.80
52963;DHT22;38827;53.024;6.596;2022-12-07T08:30:23;6.70;84.10
52963;DHT22;38827;53.024;6.596;2022-12-07T08:33:00;7.10;82.80
52963;DHT22;38827;53.024;6.596;2022-12-07T08:36:12;7.60;80.40
52963;DHT22;38827;53.024;6.596;2022-12-07T08:38:39;8.10;79.10
52963;DHT22;38827;53.024;6.596;2022-12-07T08:41:05;8.40;77.90
52963;DHT22;38827;53.024;6.596;2022-12-07T08:43:31;8.30;76.40
52963;DHT22;38827;53.024;6.596;2022-12-07T08:46:10;8.20;76.20
52963;DHT22;38827;53.024;6.596;2022-12-07T08:52:07;8.10;74.60
52963;DHT22;38827;53.024;6.596;2022-12-07T08:54:43;7.60;75.60
52963;DHT22;38827;53.024;6.596;2022-12-07T08:57:35;7.20;75.90
52963;DHT22;38827;53.024;6.596;2022-12-07T09:00:30;6.70;76.10
52963;DHT22;38827;53.024;6.596;2022-12-07T09:03:20;6.30;76.70
52963;DHT22;38827;53.024;6.596;2022-12-07T09:09:11;5.70;78.50
52963;DHT22;38827;53.024;6.596;2022-12-07T09:11:48;5.50;79.20
52963;DHT22;38827;53.024;6.596;2022-12-07T09:14:18;5.50;79.30
52963;DHT22;38827;53.024;6.596;2022-12-07T09:16:44;5.50;79.30
52963;DHT22;38827;53.024;6.596;2022-12-07T09:19:17;5.40;79.20
52963;DHT22;38827;53.024;6.596;2022-12-07T09:21:42;5.30;79.40
52963;DHT22;38827;53.024;6.596;2022-12-07T09:24:23;5.20;79.90
52963;DHT22;38827;53.024;6.596;2022-12-07T09:26:49;5.10;80.10
52963;DHT22;38827;53.024;6.596;2022-12-07T09:29:43;5.10;80.30
52963;DHT22;38827;53.024;6.596;2022-12-07T09:32:11;5.20;80.30
52963;DHT22;38827;53.024;6.596;2022-12-07T09:34:36;5.30;80.60
52963;DHT22;38827;53.024;6.596;2022-12-07T09:37:12;5.40;80.40
52963;DHT22;38827;53.024;6.596;2022-12-07T09:39:39;5.50;80.40
52963;DHT22;38827;53.024;6.596;2022-12-07T09:42:06;5.60;80.40
52963;DHT22;38827;53.024;6.596;2022-12-07T09:44:59;5.70;80.00
52963;DHT22;38827;53.024;6.596;2022-12-07T09:47:41;5.70;79.60
52963;DHT22;38827;53.024;6.596;2022-12-07T09:50:27;5.60;79.80
52963;DHT22;38827;53.024;6.596;2022-12-07T09:53:10;5.60;80.00
52963;DHT22;38827;53.024;6.596;2022-12-07T09:56:01;5.50;80.20
52963;DHT22;38827;53.024;6.596;2022-12-07T09:58:28;5.40;80.40
52963;DHT22;38827;53.024;6.596;2022-12-07T10:01:30;5.30;80.40
52963;DHT22;38827;53.024;6.596;2022-12-07T10:04:22;5.20;80.70
52963;DHT22;38827;53.024;6.596;2022-12-07T10:07:22;5.10;81.20
52963;DHT22;38827;53.024;6.596;2022-12-07T10:10:17;5.00;81.50
52963;DHT22;38827;53.024;6.596;2022-12-07T10:19:27;5.00;82.10
52963;DHT22;38827;53.024;6.596;2022-12-07T10:22:11;5.10;82.10
52963;DHT22;38827;53.024;6.596;2022-12-07T10:24:43;5.20;81.90
52963;DHT22;38827;53.024;6.596;2022-12-07T10:27:26;5.20;82.00
52963;DHT22;38827;53.024;6.596;2022-12-07T10:29:54;5.30;81.90
52963;DHT22;38827;53.024;6.596;2022-12-07T10:32:35;5.40;82.10
52963;DHT22;38827;53.024;6.596;2022-12-07T10:46:26;5.90;81.00
52963;DHT22;38827;53.024;6.596;2022-12-07T10:54:04;5.90;81.00
52963;DHT22;38827;53.024;6.596;2022-12-07T11:26:05;6.60;78.40
52963;DHT22;38827;53.024;6.596;2022-12-07T11:34:07;6.50;79.40
52963;DHT22;38827;53.024;6.596;2022-12-07T11:36:43;6.60;79.90
52963;DHT22;38827;53.024;6.596;2022-12-07T11:41:49;6.70;78.30
52963;DHT22;38827;53.024;6.596;2022-12-07T11:44:35;6.70;78.20
52963;DHT22;38827;53.024;6.596;2022-12-07T11:47:08;6.70;77.00
52963;DHT22;38827;53.024;6.596;2022-12-07T11:55:41;6.80;77.30
52963;DHT22;38827;53.024;6.596;2022-12-07T12:01:14;7.10;77.20
52963;DHT22;38827;53.024;6.596;2022-12-07T12:06:25;7.30;76.60
52963;DHT22;38827;53.024;6.596;2022-12-07T12:09:00;7.40;76.10
52963;DHT22;38827;53.024;6.596;2022-12-07T12:21:09;7.60;75.70
52963;DHT22;38827;53.024;6.596;2022-12-07T12:26:58;7.70;75.80
52963;DHT22;38827;53.024;6.596;2022-12-07T12:29:41;7.70;76.10
52963;DHT22;38827;53.024;6.596;2022-12-07T12:32:21;7.70;76.10
52963;DHT22;38827;53.024;6.596;2022-12-07T12:34:58;7.70;76.10
52963;DHT22;38827;53.024;6.596;2022-12-07T12:42:52;7.50;75.90
52963;DHT22;38827;53.024;6.596;2022-12-07T12:45:21;7.40;76.00
52963;DHT22;38827;53.024;6.596;2022-12-07T12:50:20;7.20;76.20
52963;DHT22;38827;53.024;6.596;2022-12-07T13:23:33;5.80;77.20
52963;DHT22;38827;53.024;6.596;2022-12-07T13:26:56;5.70;77.40
52963;DHT22;38827;53.024;6.596;2022-12-07T13:29:25;5.70;77.50
52963;DHT22;38827;53.024;6.596;2022-12-07T13:31:58;5.70;77.70
52963;DHT22;38827;53.024;6.596;2022-12-07T13:37:28;5.70;77.50
52963;DHT22;38827;53.024;6.596;2022-12-07T13:40:17;5.70;77.50
52963;DHT22;38827;53.024;6.596;2022-12-07T13:43:01;5.60;77.50
52963;DHT22;38827;53.024;6.596;2022-12-07T13:45:30;5.70;77.60
52963;DHT22;38827;53.024;6.596;2022-12-07T13:48:22;5.60;77.70
52963;DHT22;38827;53.024;6.596;2022-12-07T13:50:57;5.60;77.80
52963;DHT22;38827;53.024;6.596;2022-12-07T13:53:23;5.60;77.90
52963;DHT22;38827;53.024;6.596;2022-12-07T13:55:49;5.60;77.80
52963;DHT22;38827;53.024;6.596;2022-12-07T13:58:15;5.60;77.90
52963;DHT22;38827;53.024;6.596;2022-12-07T14:00:41;5.60;77.80
52963;DHT22;38827;53.024;6.596;2022-12-07T14:05:40;5.50;77.90
52963;DHT22;38827;53.024;6.596;2022-12-07T14:10:40;5.50;77.90
52963;DHT22;38827;53.024;6.596;2022-12-07T14:13:34;5.40;78.10
52963;DHT22;38827;53.024;6.596;2022-12-07T14:18:50;5.40;78.40
52963;DHT22;38827;53.024;6.596;2022-12-07T14:21:18;5.30;78.70
52963;DHT22;38827;53.024;6.596;2022-12-07T14:24:04;5.30;78.80
52963;DHT22;38827;53.024;6.596;2022-12-07T14:26:33;5.30;78.90
52963;DHT22;38827;53.024;6.596;2022-12-07T14:29:22;5.20;79.20
52963;DHT22;38827;53.024;6.596;2022-12-07T14:31:47;5.20;79.30
52963;DHT22;38827;53.024;6.596;2022-12-07T14:34:13;5.20;79.50
52963;DHT22;38827;53.024;6.596;2022-12-07T14:36:39;5.10;79.70
52963;DHT22;38827;53.024;6.596;2022-12-07T14:39:05;5.10;79.80
52963;DHT22;38827;53.024;6.596;2022-12-07T14:41:31;5.00;80.00
52963;DHT22;38827;53.024;6.596;2022-12-07T14:44:15;5.00;80.20
52963;DHT22;38827;53.024;6.596;2022-12-07T14:46:40;5.00;80.40
52963;DHT22;38827;53.024;6.596;2022-12-07T14:49:06;5.00;80.50
52963;DHT22;38827;53.024;6.596;2022-12-07T14:51:33;5.00;80.70
52963;DHT22;38827;53.024;6.596;2022-12-07T14:53:58;5.00;80.90
52963;DHT22;38827;53.024;6.596;2022-12-07T14:56:25;5.00;81.00
52963;DHT22;38827;53.024;6.596;2022-12-07T14:58:50;5.00;81.10
52963;DHT22;38827;53.024;6.596;2022-12-07T15:01:16;5.00;81.20
52963;DHT22;38827;53.024;6.596;2022-12-07T15:03:42;5.00;81.40
52963;DHT22;38827;53.024;6.596;2022-12-07T15:06:16;5.00;81.50
52963;DHT22;38827;53.024;6.596;2022-12-07T15:08:42;5.00;81.60
52963;DHT22;38827;53.024;6.596;2022-12-07T15:11:14;5.00;81.80
52963;DHT22;38827;53.024;6.596;2022-12-07T15:13:40;5.00;81.90
52963;DHT22;38827;53.024;6.596;2022-12-07T15:16:24;5.00;82.10
52963;DHT22;38827;53.024;6.596;2022-12-07T15:18:50;4.90;82.10
52963;DHT22;38827;53.024;6.596;2022-12-07T15:21:17;4.90;82.00
52963;DHT22;38827;53.024;6.596;2022-12-07T15:23:43;4.90;82.00
52963;DHT22;38827;53.024;6.596;2022-12-07T15:26:10;4.90;82.30
52963;DHT22;38827;53.024;6.596;2022-12-07T15:28:36;4.90;82.20
52963;DHT22;38827;53.024;6.596;2022-12-07T15:31:01;4.90;82.20
52963;DHT22;38827;53.024;6.596;2022-12-07T15:33:27;4.80;82.20
52963;DHT22;38827;53.024;6.596;2022-12-07T15:35:53;4.80;82.10
52963;DHT22;38827;53.024;6.596;2022-12-07T15:38:18;4.70;82.10
52963;DHT22;38827;53.024;6.596;2022-12-07T15:40:47;4.70;82.30
52963;DHT22;38827;53.024;6.596;2022-12-07T15:43:16;4.70;82.40
52963;DHT22;38827;53.024;6.596;2022-12-07T15:46:00;4.60;82.50
52963;DHT22;38827;53.024;6.596;2022-12-07T15:48:25;4.50;82.60
52963;DHT22;38827;53.024;6.596;2022-12-07T15:50:51;4.50;82.90
52963;DHT22;38827;53.024;6.596;2022-12-07T15:53:17;4.50;83.00
52963;DHT22;38827;53.024;6.596;2022-12-07T15:55:42;4.50;83.10
52963;DHT22;38827;53.024;6.596;2022-12-07T15:58:08;4.40;83.40
52963;DHT22;38827;53.024;6.596;2022-12-07T16:00:34;4.40;83.60
52963;DHT22;38827;53.024;6.596;2022-12-07T16:03:00;4.40;83.70
52963;DHT22;38827;53.024;6.596;2022-12-07T16:05:26;4.40;83.80
52963;DHT22;38827;53.024;6.596;2022-12-07T16:07:54;4.40;84.00
52963;DHT22;38827;53.024;6.596;2022-12-07T16:10:19;4.40;84.10
52963;DHT22;38827;53.024;6.596;2022-12-07T16:12:45;4.40;84.10
52963;DHT22;38827;53.024;6.596;2022-12-07T16:15:11;4.40;84.10
52963;DHT22;38827;53.024;6.596;2022-12-07T16:17:36;4.40;84.20
52963;DHT22;38827;53.024;6.596;2022-12-07T16:20:03;4.40;84.10
52963;DHT22;38827;53.024;6.596;2022-12-07T16:22:30;4.30;84.00
52963;DHT22;38827;53.024;6.596;2022-12-07T16:24:56;4.40;84.00
52963;DHT22;38827;53.024;6.596;2022-12-07T16:27:22;4.40;83.90
52963;DHT22;38827;53.024;6.596;2022-12-07T16:33:01;4.30;83.90
52963;DHT22;38827;53.024;6.596;2022-12-07T16:35:27;4.30;83.80
52963;DHT22;38827;53.024;6.596;2022-12-07T16:37:52;4.30;83.80
52963;DHT22;38827;53.024;6.596;2022-12-07T16:40:27;4.30;83.60
52963;DHT22;38827;53.024;6.596;2022-12-07T16:42:53;4.30;83.50
52963;DHT22;38827;53.024;6.596;2022-12-07T16:45:25;4.30;83.50
52963;DHT22;38827;53.024;6.596;2022-12-07T16:47:50;4.30;83.40
52963;DHT22;38827;53.024;6.596;2022-12-07T16:50:16;4.20;83.50
52963;DHT22;38827;53.024;6.596;2022-12-07T16:52:43;4.20;83.60
52963;DHT22;38827;53.024;6.596;2022-12-07T16:55:08;4.30;83.60
52963;DHT22;38827;53.024;6.596;2022-12-07T16:57:34;4.30;83.70
52963;DHT22;38827;53.024;6.596;2022-12-07T17:00:00;4.30;83.70
52963;DHT22;38827;53.024;6.596;2022-12-07T17:02:26;4.30;83.70
52963;DHT22;38827;53.024;6.596;2022-12-07T17:04:51;4.30;83.80
52963;DHT22;38827;53.024;6.596;2022-12-07T17:07:17;4.30;83.70
52963;DHT22;38827;53.024;6.596;2022-12-07T17:09:43;4.30;83.80
52963;DHT22;38827;53.024;6.596;2022-12-07T17:12:08;4.30;83.80
52963;DHT22;38827;53.024;6.596;2022-12-07T17:14:34;4.40;83.60
52963;DHT22;38827;53.024;6.596;2022-12-07T17:17:18;4.40;83.70
52963;DHT22;38827;53.024;6.596;2022-12-07T17:19:44;4.40;83.80
52963;DHT22;38827;53.024;6.596;2022-12-07T17:22:10;4.40;83.50
52963;DHT22;38827;53.024;6.596;2022-12-07T17:24:38;4.30;83.50
52963;DHT22;38827;53.024;6.596;2022-12-07T17:27:04;4.30;83.40
52963;DHT22;38827;53.024;6.596;2022-12-07T17:29:29;4.30;83.50
52963;DHT22;38827;53.024;6.596;2022-12-07T17:31:55;4.30;83.70
52963;DHT22;38827;53.024;6.596;2022-12-07T17:34:21;4.30;83.70
52963;DHT22;38827;53.024;6.596;2022-12-07T17:36:46;4.20;83.90
52963;DHT22;38827;53.024;6.596;2022-12-07T17:39:15;4.30;84.00
52963;DHT22;38827;53.024;6.596;2022-12-07T17:41:41;4.30;84.10
52963;DHT22;38827;53.024;6.596;2022-12-07T17:44:27;4.30;84.10
52963;DHT22;38827;53.024;6.596;2022-12-07T17:46:53;4.30;84.20
52963;DHT22;38827;53.024;6.596;2022-12-07T17:49:27;4.30;84.30
52963;DHT22;38827;53.024;6.596;2022-12-07T17:51:53;4.30;84.30
52963;DHT22;38827;53.024;6.596;2022-12-07T17:54:37;4.30;84.20
52963;DHT22;38827;53.024;6.596;2022-12-07T17:57:03;4.30;84.30
52963;DHT22;38827;53.024;6.596;2022-12-07T17:59:28;4.30;84.40
52963;DHT22;38827;53.024;6.596;2022-12-07T18:01:54;4.40;84.40
52963;DHT22;38827;53.024;6.596;2022-12-07T18:04:20;4.40;84.40
52963;DHT22;38827;53.024;6.596;2022-12-07T18:06:47;4.30;84.40
52963;DHT22;38827;53.024;6.596;2022-12-07T18:09:13;4.30;84.30
52963;DHT22;38827;53.024;6.596;2022-12-07T18:11:39;4.30;84.40
52963;DHT22;38827;53.024;6.596;2022-12-07T18:14:05;4.30;84.50
52963;DHT22;38827;53.024;6.596;2022-12-07T18:16:32;4.30;84.60
52963;DHT22;38827;53.024;6.596;2022-12-07T18:19:01;4.20;84.40
52963;DHT22;38827;53.024;6.596;2022-12-07T18:21:33;4.20;84.50
52963;DHT22;38827;53.024;6.596;2022-12-07T18:24:26;4.20;84.50
52963;DHT22;38827;53.024;6.596;2022-12-07T18:26:55;4.20;84.40
52963;DHT22;38827;53.024;6.596;2022-12-07T18:29:24;4.10;84.30
52963;DHT22;38827;53.024;6.596;2022-12-07T18:34:32;4.10;84.40
52963;DHT22;38827;53.024;6.596;2022-12-07T18:50:35;3.90;84.80
52963;DHT22;38827;53.024;6.596;2022-12-07T18:53:16;3.80;84.90
52963;DHT22;38827;53.024;6.596;2022-12-07T18:59:12;3.90;85.20
52963;DHT22;38827;53.024;6.596;2022-12-07T19:02:09;3.90;85.30
52963;DHT22;38827;53.024;6.596;2022-12-07T19:04:45;3.80;85.50
52963;DHT22;38827;53.024;6.596;2022-12-07T19:07:11;3.90;85.60
52963;DHT22;38827;53.024;6.596;2022-12-07T19:09:37;3.80;85.50
52963;DHT22;38827;53.024;6.596;2022-12-07T19:12:03;3.80;85.50
52963;DHT22;38827;53.024;6.596;2022-12-07T19:14:34;3.80;85.60
52963;DHT22;38827;53.024;6.596;2022-12-07T19:17:07;3.80;85.60
52963;DHT22;38827;53.024;6.596;2022-12-07T19:19:36;3.80;85.60
52963;DHT22;38827;53.024;6.596;2022-12-07T19:22:02;3.90;85.60
52963;DHT22;38827;53.024;6.596;2022-12-07T19:24:31;3.90;85.60
52963;DHT22;38827;53.024;6.596;2022-12-07T19:26:57;3.90;85.50
52963;DHT22;38827;53.024;6.596;2022-12-07T19:29:23;3.90;85.60
52963;DHT22;38827;53.024;6.596;2022-12-07T19:31:49;3.90;85.60
52963;DHT22;38827;53.024;6.596;2022-12-07T19:34:17;3.90;85.50
52963;DHT22;38827;53.024;6.596;2022-12-07T19:36:50;3.90;85.40
52963;DHT22;38827;53.024;6.596;2022-12-07T19:39:15;3.90;85.30
52963;DHT22;38827;53.024;6.596;2022-12-07T19:41:42;3.90;85.30
52963;DHT22;38827;53.024;6.596;2022-12-07T19:44:18;3.90;85.20
52963;DHT22;38827;53.024;6.596;2022-12-07T19:46:46;3.90;85.40
52963;DHT22;38827;53.024;6.596;2022-12-07T19:49:14;3.90;85.40
52963;DHT22;38827;53.024;6.596;2022-12-07T19:51:42;3.90;85.50
52963;DHT22;38827;53.024;6.596;2022-12-07T19:54:09;3.90;85.50
52963;DHT22;38827;53.024;6.596;2022-12-07T19:56:37;3.90;85.60
52963;DHT22;38827;53.024;6.596;2022-12-07T19:59:02;3.90;85.50
52963;DHT22;38827;53.024;6.596;2022-12-07T20:01:29;4.00;85.50
52963;DHT22;38827;53.024;6.596;2022-12-07T20:03:55;4.00;85.40
52963;DHT22;38827;53.024;6.596;2022-12-07T20:06:21;3.90;85.40